Grand Junction, Tennessee
Current Conditions -  °F | °C
As of 2:55 AM on Saturday 25 Oct 2014 (Local Time) from KOLV Reporting Station
Clear Clear  
Wind Chill: 54°   Ceiling: Unl
Heat Index: 54°   Visibility: 7mi
Dew Point: 54°   Wind: 3mph
Humidity: 100%   Direction: 180°S
Pressure: 30.09"   Gusts: NA
Location:  35.05°N, 89.19°W
Report Text: KOLV 250755Z AUTO 18003KT 7SM CLR 12/12 A3009 RMK A01 P000
Loading
Personal Weather Stations






























Interactive Weather Map
Tropical Storm Tracking
New forecast layout! Learn more

10-Day Weather Forecast

Advertisements
Track Severe Weather on mobile